createdAt,value
2019-05-14T00:01:03.736Z,38.27
2019-05-14T00:02:08.721Z,38.07
2019-05-14T00:03:14.283Z,37.54
2019-05-14T00:04:19.031Z,37.56
2019-05-14T00:05:24.850Z,38.09
2019-05-14T00:06:31.155Z,38.10
2019-05-14T00:07:36.491Z,37.98
2019-05-14T00:08:41.796Z,37.60
2019-05-14T00:09:47.040Z,38.01
2019-05-14T00:10:52.503Z,38.47
2019-05-14T00:11:57.781Z,38.61
2019-05-14T00:13:03.114Z,38.28
2019-05-14T00:14:08.652Z,38.44
2019-05-14T00:15:14.046Z,38.58
2019-05-14T00:16:22.241Z,38.51
2019-05-14T00:17:26.288Z,38.79
2019-05-14T00:18:31.753Z,38.67
2019-05-14T00:19:36.703Z,38.57
2019-05-14T00:20:42.114Z,38.60
2019-05-14T00:21:47.553Z,39.09
2019-05-14T00:22:53.654Z,38.88
2019-05-14T00:23:58.723Z,38.77
2019-05-14T00:25:05.043Z,38.56
2019-05-14T00:26:12.150Z,39.34
2019-05-14T00:27:17.416Z,39.42
2019-05-14T00:28:22.645Z,39.71
2019-05-14T00:29:28.218Z,39.13
2019-05-14T00:30:33.809Z,39.26
2019-05-14T00:31:39.402Z,39.86
2019-05-14T00:32:44.380Z,39.65
2019-05-14T00:33:51.268Z,39.42
2019-05-14T00:34:56.795Z,40.11
2019-05-14T00:36:02.653Z,40.08
2019-05-14T00:37:07.978Z,40.10
2019-05-14T00:38:13.799Z,39.49
2019-05-14T00:39:21.331Z,39.62
2019-05-14T00:40:27.059Z,38.79
2019-05-14T00:41:32.342Z,39.45
2019-05-14T00:42:38.201Z,39.02
2019-05-14T00:43:43.178Z,38.32
2019-05-14T00:44:54.530Z,38.50
2019-05-14T00:45:55.208Z,38.41
2019-05-14T00:47:02.218Z,38.61
2019-05-14T00:48:07.170Z,38.78
2019-05-14T00:49:12.723Z,38.34
2019-05-14T00:50:17.526Z,38.39
2019-05-14T00:51:23.206Z,38.66
2019-05-14T00:52:27.930Z,38.62
2019-05-14T00:53:33.488Z,38.57
2019-05-14T00:54:38.871Z,38.46
2019-05-14T00:55:44.980Z,38.69
2019-05-14T00:56:52.059Z,38.76
2019-05-14T00:57:57.313Z,38.55
2019-05-14T00:59:02.681Z,39.00
2019-05-14T01:00:07.796Z,38.76
2019-05-14T01:01:13.380Z,38.98
2019-05-14T01:02:21.617Z,38.99
2019-05-14T01:03:25.947Z,39.05
2019-05-14T01:04:31.681Z,39.13
2019-05-14T01:05:37.242Z,39.45
2019-05-14T01:06:42.523Z,39.34
2019-05-14T01:07:47.672Z,39.51
2019-05-14T01:08:53.949Z,39.90
2019-05-14T01:10:01.179Z,39.94
2019-05-14T01:11:06.357Z,40.16
2019-05-14T01:12:14.139Z,40.24
2019-05-14T01:13:21.977Z,40.43
2019-05-14T01:14:26.778Z,40.27
2019-05-14T01:15:32.390Z,40.53
2019-05-14T01:16:37.529Z,40.65
2019-05-14T01:17:43.077Z,40.46
2019-05-14T01:18:48.209Z,40.00
2019-05-14T01:19:54.303Z,40.40
2019-05-14T01:21:01.080Z,40.71
2019-05-14T01:22:06.593Z,40.60
2019-05-14T01:23:11.580Z,40.96
2019-05-14T01:24:17.723Z,40.75
2019-05-14T01:25:23.646Z,40.93
2019-05-14T01:26:31.060Z,40.86
2019-05-14T01:27:36.276Z,40.89
2019-05-14T01:28:42.161Z,41.35
2019-05-14T01:29:47.561Z,41.30
2019-05-14T01:30:53.522Z,41.05
2019-05-14T01:31:58.665Z,41.05
2019-05-14T01:33:04.050Z,41.02
2019-05-14T01:34:11.186Z,40.89
2019-05-14T01:35:16.462Z,40.75
2019-05-14T01:36:21.691Z,41.39
2019-05-14T01:37:27.169Z,41.64
2019-05-14T01:38:31.932Z,41.48
2019-05-14T01:39:38.022Z,41.51
2019-05-14T01:40:43.318Z,41.93
2019-05-14T01:41:51.526Z,42.04
2019-05-14T01:42:57.135Z,41.94
2019-05-14T01:44:03.124Z,41.64
2019-05-14T01:45:21.914Z,41.74
2019-05-14T01:46:15.407Z,41.80
2019-05-14T01:47:21.379Z,41.74
2019-05-14T01:48:26.828Z,41.66
2019-05-14T01:49:31.978Z,41.87
2019-05-14T01:50:37.548Z,41.68
2019-05-14T01:51:42.551Z,41.63
2019-05-14T01:52:48.393Z,42.23
2019-05-14T01:53:53.767Z,41.92
2019-05-14T01:54:59.324Z,42.35
2019-05-14T01:56:04.725Z,42.74
2019-05-14T01:57:11.485Z,42.62
2019-05-14T01:58:16.821Z,43.04
2019-05-14T01:59:21.832Z,43.17
2019-05-14T02:00:26.653Z,42.85
2019-05-14T02:01:32.002Z,42.78
2019-05-14T02:02:37.330Z,42.77
2019-05-14T02:03:43.168Z,43.00
2019-05-14T02:04:47.957Z,42.62
2019-05-14T02:05:53.878Z,43.13
2019-05-14T02:06:59.151Z,42.96
2019-05-14T02:08:04.730Z,43.12
2019-05-14T02:09:11.113Z,43.17
2019-05-14T02:10:17.875Z,43.46
2019-05-14T02:11:23.208Z,42.61
2019-05-14T02:12:28.817Z,42.76
2019-05-14T02:13:33.842Z,43.13
2019-05-14T02:14:39.102Z,43.18
2019-05-14T02:15:43.806Z,43.20
2019-05-14T02:16:51.078Z,43.15
2019-05-14T02:17:56.248Z,43.12
2019-05-14T02:19:02.373Z,43.21
2019-05-14T02:20:07.922Z,42.99
2019-05-14T02:21:13.499Z,43.18
2019-05-14T02:22:18.472Z,43.52
2019-05-14T02:23:24.143Z,43.37
2019-05-14T02:24:29.434Z,43.52
2019-05-14T02:25:34.966Z,43.41
2019-05-14T02:26:42.205Z,43.47
2019-05-14T02:27:47.488Z,43.66
2019-05-14T02:28:53.019Z,43.48
2019-05-14T02:29:58.323Z,43.82
2019-05-14T02:31:04.064Z,43.48
2019-05-14T02:32:11.863Z,43.72
2019-05-14T02:33:19.238Z,44.09
2019-05-14T02:34:23.755Z,43.89
2019-05-14T02:35:29.825Z,43.74
2019-05-14T02:36:35.112Z,43.76
2019-05-14T02:37:40.524Z,43.97
2019-05-14T02:38:49.100Z,44.22
2019-05-14T02:39:59.470Z,43.59
2019-05-14T02:41:03.349Z,44.23
2019-05-14T02:42:09.418Z,44.08
2019-05-14T02:43:16.081Z,44.25
2019-05-14T02:44:21.644Z,43.48
2019-05-14T02:45:30.069Z,43.79
2019-05-14T02:46:34.044Z,43.66
2019-05-14T02:47:41.682Z,43.28
2019-05-14T02:48:49.115Z,43.47
2019-05-14T02:49:58.765Z,43.88
2019-05-14T02:51:03.062Z,44.09
2019-05-14T02:52:10.020Z,44.19
2019-05-14T02:53:19.528Z,43.87
2019-05-14T02:54:23.337Z,43.30
2019-05-14T02:55:29.889Z,44.18
2019-05-14T02:56:35.116Z,44.40
2019-05-14T02:57:40.749Z,44.21
2019-05-14T02:58:49.629Z,43.93
2019-05-14T02:59:53.621Z,44.33
2019-05-14T03:01:00.423Z,44.49
2019-05-14T03:02:05.836Z,44.88
2019-05-14T03:03:11.375Z,44.90
2019-05-14T03:04:19.768Z,44.74
2019-05-14T03:05:24.562Z,44.77
2019-05-14T03:06:29.911Z,44.98
2019-05-14T03:07:38.971Z,45.51
2019-05-14T03:08:42.675Z,45.69
2019-05-14T03:09:50.244Z,46.37
2019-05-14T03:10:55.505Z,46.10
2019-05-14T03:12:01.019Z,46.05
2019-05-14T03:13:05.731Z,46.43
2019-05-14T03:14:11.354Z,46.50
2019-05-14T03:15:16.093Z,46.45
2019-05-14T03:16:30.426Z,46.50
2019-05-14T03:17:29.987Z,47.10
2019-05-14T03:18:39.419Z,46.81
2019-05-14T03:19:42.890Z,46.71
2019-05-14T03:20:50.220Z,47.02
2019-05-14T03:21:55.546Z,47.30
2019-05-14T03:23:08.481Z,47.22
2019-05-14T03:24:09.462Z,47.59
2019-05-14T03:25:15.333Z,47.45
2019-05-14T03:26:20.373Z,47.55
2019-05-14T03:27:30.091Z,47.26
2019-05-14T03:28:32.868Z,46.81
2019-05-14T03:29:39.798Z,46.12
2019-05-14T03:30:45.249Z,46.35
2019-05-14T03:31:52.892Z,46.83
2019-05-14T03:33:02.902Z,47.35
2019-05-14T03:34:04.838Z,47.70
2019-05-14T03:35:13.626Z,47.18
2019-05-14T03:36:23.820Z,47.47
2019-05-14T03:37:24.592Z,47.67
2019-05-14T03:38:30.434Z,47.73
2019-05-14T03:39:35.456Z,47.37
2019-05-14T03:40:41.074Z,47.46
2019-05-14T03:41:46.130Z,48.10
2019-05-14T03:42:51.804Z,48.07
2019-05-14T03:43:59.803Z,48.27
2019-05-14T03:45:04.116Z,48.14
2019-05-14T03:46:09.786Z,47.90
2019-05-14T03:47:15.740Z,48.67
2019-05-14T03:48:21.144Z,48.13
2019-05-14T03:49:28.821Z,48.50
2019-05-14T03:50:34.233Z,48.17
2019-05-14T03:51:40.079Z,48.42
2019-05-14T03:52:45.346Z,48.15
2019-05-14T03:54:01.121Z,47.96
2019-05-14T03:55:01.294Z,48.32
2019-05-14T03:56:04.312Z,48.30
2019-05-14T03:57:10.075Z,48.62
2019-05-14T03:58:15.156Z,48.25
2019-05-14T03:59:20.890Z,48.54
2019-05-14T04:00:50.860Z,48.73
2019-05-14T04:01:59.389Z,48.18
2019-05-14T04:03:03.982Z,48.38
2019-05-14T04:04:10.379Z,48.28
2019-05-14T04:05:18.877Z,48.42
2019-05-14T04:06:24.218Z,48.16
2019-05-14T04:07:32.286Z,48.73
2019-05-14T04:08:39.778Z,49.19
2019-05-14T04:09:49.469Z,48.49
2019-05-14T04:10:58.964Z,49.05
2019-05-14T04:12:05.587Z,49.15
2019-05-14T04:13:12.175Z,48.99
2019-05-14T04:14:20.261Z,49.34
2019-05-14T04:15:29.843Z,49.70
2019-05-14T04:16:39.841Z,49.54
2019-05-14T04:17:49.866Z,49.14
2019-05-14T04:18:59.233Z,49.39
2019-05-14T04:20:04.247Z,49.29
2019-05-14T04:21:10.497Z,49.34
2019-05-14T04:22:15.071Z,49.54
2019-05-14T04:23:24.210Z,49.35
2019-05-14T04:24:31.534Z,48.95
2019-05-14T04:25:39.315Z,49.24
2019-05-14T04:26:58.353Z,49.24
2019-05-14T04:27:59.590Z,49.43
2019-05-14T04:29:05.089Z,49.33
2019-05-14T04:30:12.803Z,49.51
2019-05-14T04:31:19.285Z,49.72
2019-05-14T04:32:28.951Z,49.36
2019-05-14T04:33:35.383Z,49.23
2019-05-14T04:34:41.184Z,49.03
2019-05-14T04:35:49.000Z,48.71
2019-05-14T04:36:54.345Z,49.01
2019-05-14T04:37:59.444Z,49.20
2019-05-14T04:39:09.195Z,49.29
2019-05-14T04:40:12.768Z,49.23
2019-05-14T04:41:19.720Z,49.30
2019-05-14T04:42:25.424Z,49.21
2019-05-14T04:43:31.744Z,49.76
2019-05-14T04:44:39.996Z,49.50
2019-05-14T04:45:44.202Z,49.68
2019-05-14T04:46:49.674Z,49.10
2019-05-14T04:47:55.445Z,48.41
2019-05-14T04:49:00.260Z,48.45
2019-05-14T04:50:10.235Z,49.11
2019-05-14T04:51:13.549Z,49.12
2019-05-14T04:52:20.566Z,48.93
2019-05-14T04:53:26.198Z,49.32
2019-05-14T04:54:31.814Z,49.43
2019-05-14T04:55:39.899Z,49.78
2019-05-14T04:56:44.497Z,49.07
2019-05-14T04:57:50.397Z,48.83
2019-05-14T04:58:55.991Z,49.14
2019-05-14T05:00:00.900Z,49.03
2019-05-14T05:01:09.801Z,48.94
2019-05-14T05:02:14.427Z,48.91
2019-05-14T05:03:20.251Z,48.95
2019-05-14T05:04:25.556Z,49.01
2019-05-14T05:05:31.448Z,48.80
2019-05-14T05:06:39.374Z,49.04
2019-05-14T05:07:43.234Z,48.95
2019-05-14T05:08:49.896Z,49.09
2019-05-14T05:09:59.144Z,49.20
2019-05-14T05:11:03.077Z,49.17
2019-05-14T05:12:09.489Z,49.30
2019-05-14T05:13:14.520Z,49.48
2019-05-14T05:14:23.624Z,49.13
2019-05-14T05:15:29.076Z,49.51
2019-05-14T05:16:34.812Z,49.19
2019-05-14T05:17:48.273Z,49.46
2019-05-14T05:18:49.183Z,49.85
2019-05-14T05:19:54.135Z,49.65
2019-05-14T05:20:59.425Z,49.65
2019-05-14T05:22:03.898Z,49.19
2019-05-14T05:23:09.768Z,49.15
2019-05-14T05:24:14.547Z,49.00
2019-05-14T05:25:20.538Z,48.30
2019-05-14T05:26:25.311Z,47.83
2019-05-14T05:27:30.920Z,48.22
2019-05-14T05:28:38.898Z,47.88
2019-05-14T05:29:44.299Z,47.84
2019-05-14T05:30:49.452Z,48.20
2019-05-14T05:31:54.850Z,47.88
2019-05-14T05:33:00.191Z,47.99
2019-05-14T05:34:05.921Z,47.74
2019-05-14T05:35:10.465Z,47.68
2019-05-14T05:36:15.658Z,47.68
2019-05-14T05:37:20.730Z,47.42
2019-05-14T05:38:26.076Z,47.08
2019-05-14T05:39:31.439Z,47.51
2019-05-14T05:40:39.174Z,47.35
2019-05-14T05:41:44.205Z,47.69
2019-05-14T05:42:50.354Z,47.04
2019-05-14T05:43:59.067Z,46.48
2019-05-14T05:45:04.719Z,45.98
2019-05-14T05:46:10.005Z,46.19
2019-05-14T05:47:18.031Z,46.49
2019-05-14T05:48:22.302Z,45.97
2019-05-14T05:49:29.136Z,46.30
2019-05-14T05:50:34.205Z,45.37
2019-05-14T05:51:39.920Z,44.94
2019-05-14T05:52:44.659Z,44.45
2019-05-14T05:53:50.353Z,44.63
2019-05-14T05:54:55.277Z,44.19
2019-05-14T05:56:01.223Z,44.08
2019-05-14T05:57:09.043Z,43.44
2019-05-14T05:58:13.705Z,43.48
2019-05-14T05:59:18.998Z,43.42
2019-05-14T06:00:35.549Z,42.51
2019-05-14T06:01:46.018Z,42.63
2019-05-14T06:02:49.093Z,42.53
2019-05-14T06:03:54.177Z,42.32
2019-05-14T06:05:00.164Z,41.54
2019-05-14T06:06:04.993Z,41.41
2019-05-14T06:07:11.092Z,41.32
2019-05-14T06:08:18.714Z,40.96
2019-05-14T06:09:23.838Z,40.68
2019-05-14T06:10:29.374Z,41.09
2019-05-14T06:11:34.698Z,40.10
2019-05-14T06:12:39.808Z,40.43
2019-05-14T06:13:48.314Z,39.52
2019-05-14T06:14:53.004Z,37.53
2019-05-14T06:15:59.355Z,33.97
2019-05-14T06:17:04.662Z,30.92
2019-05-14T06:18:17.374Z,28.45
2019-05-14T06:19:18.572Z,27.53
2019-05-14T06:20:23.646Z,26.77
2019-05-14T06:21:29.347Z,26.18
2019-05-14T06:22:35.280Z,24.87
2019-05-14T06:23:40.081Z,24.24
2019-05-14T06:24:48.344Z,23.63
2019-05-14T06:25:54.835Z,23.39
2019-05-14T06:27:00.689Z,22.89
2019-05-14T06:28:05.828Z,23.43
2019-05-14T06:29:11.779Z,22.49
2019-05-14T06:30:28.493Z,22.48
2019-05-14T06:31:34.361Z,21.44
2019-05-14T06:32:39.859Z,21.94
2019-05-14T06:33:48.415Z,20.99
2019-05-14T06:34:52.647Z,20.23
2019-05-14T06:35:59.161Z,20.68
2019-05-14T06:37:04.931Z,20.44
2019-05-14T06:38:10.617Z,20.04
2019-05-14T06:39:18.204Z,20.04
2019-05-14T06:40:23.196Z,20.19
2019-05-14T06:41:28.802Z,20.55
2019-05-14T06:42:34.751Z,20.28
2019-05-14T06:43:39.863Z,20.07
2019-05-14T06:44:45.269Z,19.10
2019-05-14T06:45:50.092Z,19.89
2019-05-14T06:46:55.698Z,19.38
2019-05-14T06:48:00.721Z,18.84
2019-05-14T06:49:08.931Z,19.86
2019-05-14T06:50:12.984Z,19.31
2019-05-14T06:51:19.835Z,19.85
2019-05-14T06:52:25.557Z,19.17
2019-05-14T06:53:30.682Z,18.96
2019-05-14T06:54:35.450Z,18.76
2019-05-14T06:55:41.459Z,18.87
2019-05-14T06:56:48.655Z,18.29
2019-05-14T06:57:53.346Z,19.00
2019-05-14T06:58:58.679Z,20.41
2019-05-14T07:00:04.537Z,20.61
2019-05-14T07:01:09.972Z,21.83
2019-05-14T07:02:15.835Z,21.13
2019-05-14T07:03:20.619Z,22.38
2019-05-14T07:04:28.624Z,22.54
2019-05-14T07:05:33.413Z,22.19
2019-05-14T07:06:39.229Z,21.68
2019-05-14T07:07:44.636Z,21.03
2019-05-14T07:08:52.663Z,19.44
2019-05-14T07:09:58.180Z,19.23
2019-05-14T07:11:04.090Z,18.62
2019-05-14T07:12:09.230Z,19.92
2019-05-14T07:13:14.635Z,19.01
2019-05-14T07:14:19.744Z,17.93
2019-05-14T07:15:25.024Z,17.45
2019-05-14T07:16:29.534Z,16.21
2019-05-14T07:17:34.900Z,16.57
2019-05-14T07:18:52.790Z,16.47
2019-05-14T07:19:49.110Z,15.94
2019-05-14T07:20:54.891Z,15.46
2019-05-14T07:22:00.003Z,15.88
2019-05-14T07:23:05.061Z,15.14
2019-05-14T07:24:11.351Z,16.04
2019-05-14T07:25:18.364Z,15.95
2019-05-14T07:26:24.055Z,15.34
2019-05-14T07:27:29.094Z,15.44
2019-05-14T07:28:34.708Z,16.27
2019-05-14T07:29:39.498Z,16.95
2019-05-14T07:30:45.164Z,15.56
2019-05-14T07:31:50.306Z,15.57
2019-05-14T07:32:55.958Z,15.66
2019-05-14T07:34:01.425Z,15.73
2019-05-14T07:35:09.118Z,16.22
2019-05-14T07:36:14.362Z,15.88
2019-05-14T07:37:20.273Z,14.88
2019-05-14T07:38:25.370Z,14.58
2019-05-14T07:39:30.974Z,14.88
2019-05-14T07:40:38.702Z,14.41
2019-05-14T07:41:43.456Z,14.27
2019-05-14T07:42:48.849Z,15.08
2019-05-14T07:43:54.629Z,15.29
2019-05-14T07:45:00.087Z,15.16
2019-05-14T07:46:05.716Z,14.52
2019-05-14T07:47:10.832Z,13.80
2019-05-14T07:48:18.848Z,14.84
2019-05-14T07:49:23.630Z,14.61
2019-05-14T07:50:29.259Z,14.04
2019-05-14T07:51:34.356Z,14.09
2019-05-14T07:52:45.285Z,14.28
2019-05-14T07:53:48.523Z,14.41
2019-05-14T07:54:54.135Z,14.19
2019-05-14T07:55:59.358Z,13.65
2019-05-14T07:57:05.319Z,15.03
2019-05-14T07:58:10.462Z,15.26
2019-05-14T07:59:18.127Z,14.63
2019-05-14T08:00:23.515Z,14.27
2019-05-14T08:01:28.865Z,14.34
2019-05-14T08:02:33.641Z,15.06
2019-05-14T08:03:39.605Z,13.69
2019-05-14T08:04:44.726Z,14.27
2019-05-14T08:05:49.805Z,14.69
2019-05-14T08:06:58.040Z,14.29
2019-05-14T08:08:03.528Z,14.36
2019-05-14T08:09:09.550Z,14.13
2019-05-14T08:10:15.461Z,14.44
2019-05-14T08:11:20.604Z,14.08
2019-05-14T08:12:25.937Z,13.17
2019-05-14T08:13:30.732Z,13.16
2019-05-14T08:14:45.211Z,13.54
2019-05-14T08:15:43.551Z,13.22
2019-05-14T08:16:49.592Z,13.11
2019-05-14T08:17:54.718Z,13.66
2019-05-14T08:19:00.322Z,12.76
2019-05-14T08:20:06.115Z,12.88
2019-05-14T08:21:12.191Z,12.48
2019-05-14T08:22:18.642Z,12.59
2019-05-14T08:23:24.360Z,11.95
2019-05-14T08:24:30.107Z,12.46
2019-05-14T08:25:38.799Z,12.49
2019-05-14T08:26:44.289Z,12.21
2019-05-14T08:27:49.818Z,12.84
2019-05-14T08:28:55.202Z,12.84
2019-05-14T08:30:01.172Z,12.51
2019-05-14T08:31:06.263Z,12.83
2019-05-14T08:32:11.965Z,12.38
2019-05-14T08:33:18.451Z,11.75
2019-05-14T08:34:24.224Z,11.63
2019-05-14T08:35:29.341Z,12.19
2019-05-14T08:36:38.002Z,10.83
2019-05-14T08:37:43.446Z,10.47
2019-05-14T08:38:50.272Z,9.86
2019-05-14T08:39:55.255Z,10.63
2019-05-14T08:41:01.438Z,10.41
2019-05-14T08:42:08.525Z,10.54
2019-05-14T08:43:13.703Z,11.14
2019-05-14T08:44:19.694Z,10.46
2019-05-14T08:45:28.218Z,10.39
2019-05-14T08:46:32.606Z,10.42
2019-05-14T08:47:39.125Z,10.49
2019-05-14T08:48:45.046Z,10.58
2019-05-14T08:49:51.129Z,11.18
2019-05-14T08:50:56.051Z,9.75
2019-05-14T08:52:01.696Z,9.88
2019-05-14T08:53:08.891Z,9.73
2019-05-14T08:54:13.518Z,9.09
2019-05-14T08:55:18.636Z,9.73
2019-05-14T08:56:23.923Z,10.20
2019-05-14T08:57:29.389Z,10.11
2019-05-14T08:58:35.067Z,10.01
2019-05-14T08:59:40.263Z,9.62
2019-05-14T09:00:45.574Z,9.38
2019-05-14T09:02:01.874Z,9.81
2019-05-14T09:02:59.063Z,9.69
2019-05-14T09:04:03.548Z,9.88
2019-05-14T09:05:10.558Z,9.81
2019-05-14T09:06:18.539Z,9.35
2019-05-14T09:07:29.096Z,9.17
2019-05-14T09:08:34.458Z,8.60
2019-05-14T09:09:42.261Z,9.28
2019-05-14T09:10:49.602Z,9.51
2019-05-14T09:11:59.697Z,9.28
2019-05-14T09:13:04.164Z,8.85
2019-05-14T09:14:19.238Z,8.34
2019-05-14T09:15:28.691Z,8.59
2019-05-14T09:16:45.949Z,9.08
2019-05-14T09:17:40.067Z,10.93
2019-05-14T09:18:45.715Z,8.72
2019-05-14T09:20:02.179Z,11.10
2019-05-14T09:20:58.906Z,9.65
2019-05-14T09:22:03.978Z,12.12
2019-05-14T09:23:09.365Z,10.63
2019-05-14T09:24:14.430Z,8.92
2019-05-14T09:25:19.700Z,8.41
2019-05-14T09:26:25.921Z,8.44
2019-05-14T09:27:31.547Z,12.20
2019-05-14T09:28:39.008Z,14.31
2019-05-14T09:29:43.529Z,15.49
2019-05-14T09:30:49.170Z,12.57
2019-05-14T09:31:54.843Z,12.94
2019-05-14T09:32:59.517Z,16.41
2019-05-14T09:34:05.261Z,17.50
2019-05-14T09:35:10.803Z,17.00
2019-05-14T09:36:20.479Z,18.36
2019-05-14T09:37:23.569Z,13.36
2019-05-14T09:38:29.608Z,13.28
2019-05-14T09:39:34.779Z,11.32
2019-05-14T09:40:40.713Z,10.55
2019-05-14T09:41:48.229Z,10.01
2019-05-14T09:42:54.342Z,9.49
2019-05-14T09:43:59.521Z,9.81
2019-05-14T09:45:04.934Z,9.22
2019-05-14T09:46:09.759Z,8.78
2019-05-14T09:47:15.427Z,8.78
2019-05-14T09:48:20.003Z,8.15
2019-05-14T09:49:28.101Z,9.16
2019-05-14T09:50:32.504Z,9.19
2019-05-14T09:51:38.555Z,9.73
2019-05-14T09:52:43.849Z,8.52
2019-05-14T09:53:49.252Z,8.61
2019-05-14T09:54:54.497Z,8.34
2019-05-14T09:55:59.818Z,8.70
2019-05-14T09:57:04.907Z,9.58
2019-05-14T09:58:10.539Z,8.67
2019-05-14T09:59:15.593Z,8.24
2019-05-14T10:00:20.646Z,8.13
2019-05-14T10:01:25.560Z,7.47
2019-05-14T10:02:30.898Z,7.40
2019-05-14T10:03:38.683Z,7.95
2019-05-14T10:04:44.020Z,8.52
2019-05-14T10:05:50.146Z,7.92
2019-05-14T10:06:59.020Z,10.95
2019-05-14T10:08:03.150Z,12.04
2019-05-14T10:09:08.794Z,13.57
2019-05-14T10:10:13.978Z,13.00
2019-05-14T10:11:19.716Z,10.52
2019-05-14T10:12:25.387Z,9.50
2019-05-14T10:13:30.850Z,8.30
2019-05-14T10:14:35.633Z,9.53
2019-05-14T10:15:41.569Z,8.86
2019-05-14T10:16:48.885Z,9.25
2019-05-14T10:17:53.542Z,11.12
2019-05-14T10:18:58.781Z,10.98
2019-05-14T10:20:03.870Z,8.89
2019-05-14T10:21:09.168Z,8.80
2019-05-14T10:22:14.794Z,7.87
2019-05-14T10:23:19.902Z,7.57
2019-05-14T10:24:25.476Z,8.35
2019-05-14T10:25:30.698Z,9.57
2019-05-14T10:26:39.199Z,8.58
2019-05-14T10:27:43.680Z,7.96
2019-05-14T10:28:48.817Z,8.16
2019-05-14T10:29:54.470Z,7.88
2019-05-14T10:31:03.647Z,7.61
2019-05-14T10:32:08.692Z,8.14
2019-05-14T10:33:14.927Z,8.02
2019-05-14T10:34:20.144Z,9.44
2019-05-14T10:35:25.694Z,9.66
2019-05-14T10:36:31.137Z,11.18
2019-05-14T10:37:39.803Z,10.96
2019-05-14T10:38:43.816Z,9.38
2019-05-14T10:39:50.098Z,9.26
2019-05-14T10:40:55.291Z,8.50
2019-05-14T10:42:00.398Z,7.77
2019-05-14T10:43:05.315Z,7.36
2019-05-14T10:44:11.094Z,7.52
2019-05-14T10:45:18.479Z,10.22
2019-05-14T10:46:23.592Z,11.92
2019-05-14T10:47:29.207Z,13.34
2019-05-14T10:48:35.484Z,14.29
2019-05-14T10:49:40.216Z,15.00
2019-05-14T10:50:59.079Z,11.24
2019-05-14T10:51:52.992Z,10.32
2019-05-14T10:52:59.451Z,10.60
2019-05-14T10:54:18.783Z,9.62
2019-05-14T10:55:12.083Z,9.38
2019-05-14T10:56:19.354Z,8.96
2019-05-14T10:57:25.096Z,8.42
2019-05-14T10:58:29.930Z,7.96
2019-05-14T10:59:35.571Z,7.67
2019-05-14T11:00:42.006Z,7.87
2019-05-14T11:01:47.946Z,7.93
2019-05-14T11:02:53.014Z,7.69
2019-05-14T11:03:58.697Z,7.47
2019-05-14T11:05:03.757Z,6.96
2019-05-14T11:06:11.655Z,9.80
2019-05-14T11:07:15.699Z,11.39
2019-05-14T11:08:21.311Z,13.35
2019-05-14T11:09:28.601Z,11.86
2019-05-14T11:10:33.853Z,9.95
2019-05-14T11:11:38.863Z,9.39
2019-05-14T11:12:44.728Z,9.09
2019-05-14T11:13:49.197Z,8.07
2019-05-14T11:14:54.546Z,8.17
2019-05-14T11:15:59.846Z,8.39
2019-05-14T11:17:05.369Z,8.03
2019-05-14T11:18:10.684Z,7.87
2019-05-14T11:19:18.647Z,8.53
2019-05-14T11:20:22.522Z,8.14
2019-05-14T11:21:30.286Z,7.77
2019-05-14T11:22:35.586Z,7.45
2019-05-14T11:23:40.908Z,7.66
2019-05-14T11:24:45.925Z,7.00
2019-05-14T11:25:51.345Z,7.21
2019-05-14T11:26:58.996Z,7.80
2019-05-14T11:28:03.757Z,7.01
2019-05-14T11:29:09.860Z,7.13
2019-05-14T11:30:15.200Z,7.22
2019-05-14T11:31:20.054Z,7.40
2019-05-14T11:32:25.730Z,6.93
2019-05-14T11:33:31.146Z,7.26
2019-05-14T11:34:39.109Z,7.46
2019-05-14T11:35:43.543Z,10.14
2019-05-14T11:36:49.972Z,11.61
2019-05-14T11:37:55.271Z,12.57
2019-05-14T11:39:03.718Z,11.77
2019-05-14T11:40:08.738Z,10.17
2019-05-14T11:41:14.631Z,9.10
2019-05-14T11:42:19.843Z,8.42
2019-05-14T11:43:28.507Z,8.48
2019-05-14T11:44:32.544Z,8.04
2019-05-14T11:45:39.241Z,7.48
2019-05-14T11:46:52.302Z,6.84
2019-05-14T11:47:52.579Z,8.30
2019-05-14T11:48:59.491Z,10.20
2019-05-14T11:50:04.771Z,10.65
2019-05-14T11:51:09.791Z,9.98
2019-05-14T11:52:17.934Z,8.69
2019-05-14T11:53:22.201Z,8.42
2019-05-14T11:54:29.197Z,8.51
2019-05-14T11:55:34.220Z,8.12
2019-05-14T11:56:41.898Z,7.50
2019-05-14T11:57:48.513Z,8.04
2019-05-14T11:58:54.436Z,7.39
2019-05-14T11:59:59.359Z,7.03
2019-05-14T12:01:04.974Z,6.67
2019-05-14T12:02:10.078Z,7.74
2019-05-14T12:03:15.728Z,7.51
2019-05-14T12:04:20.854Z,7.62
2019-05-14T12:05:25.932Z,7.83
2019-05-14T12:06:31.114Z,7.64
2019-05-14T12:07:38.923Z,8.29
2019-05-14T12:08:43.306Z,8.30
2019-05-14T12:09:48.685Z,9.34
2019-05-14T12:10:59.005Z,11.43
2019-05-14T12:12:03.961Z,12.57
2019-05-14T12:13:09.366Z,13.37
2019-05-14T12:14:14.876Z,13.82
2019-05-14T12:15:19.704Z,14.74
2019-05-14T12:16:25.011Z,14.85
2019-05-14T12:17:30.221Z,15.70
2019-05-14T12:18:41.401Z,16.14
2019-05-14T12:19:43.634Z,15.41
2019-05-14T12:20:50.000Z,15.89
2019-05-14T12:22:03.621Z,16.45
2019-05-14T12:23:02.542Z,15.85
2019-05-14T12:24:13.447Z,17.25
2019-05-14T12:25:15.298Z,17.26
2019-05-14T12:26:19.807Z,17.58
2019-05-14T12:27:25.649Z,17.43
2019-05-14T12:28:30.491Z,17.98
2019-05-14T12:29:39.498Z,16.83
2019-05-14T12:30:43.429Z,17.94
2019-05-14T12:31:50.628Z,17.74
2019-05-14T12:32:58.849Z,18.15
2019-05-14T12:34:04.008Z,17.85
2019-05-14T12:35:08.783Z,18.34
2019-05-14T12:36:14.760Z,18.58
2019-05-14T12:37:19.558Z,18.28
2019-05-14T12:38:25.018Z,18.04
2019-05-14T12:39:29.951Z,18.00
2019-05-14T12:40:38.265Z,18.71
2019-05-14T12:41:42.785Z,19.66
2019-05-14T12:42:49.831Z,19.10
2019-05-14T12:43:55.160Z,20.43
2019-05-14T12:45:00.796Z,20.14
2019-05-14T12:46:06.319Z,18.33
2019-05-14T12:47:11.674Z,19.24
2019-05-14T12:48:18.574Z,19.63
2019-05-14T12:49:23.299Z,19.10
2019-05-14T12:50:28.570Z,19.57
2019-05-14T12:51:38.255Z,19.19
2019-05-14T12:52:41.421Z,18.63
2019-05-14T12:53:48.785Z,18.94
2019-05-14T12:54:54.053Z,19.08
2019-05-14T12:55:59.908Z,19.09
2019-05-14T12:57:04.692Z,19.39
2019-05-14T12:58:10.457Z,19.65
2019-05-14T12:59:15.483Z,19.36
2019-05-14T13:00:21.379Z,19.42
2019-05-14T13:01:27.049Z,19.52
2019-05-14T13:02:32.722Z,19.71
2019-05-14T13:03:37.894Z,20.00
2019-05-14T13:04:43.299Z,19.82
2019-05-14T13:05:49.311Z,19.91
2019-05-14T13:06:55.296Z,20.21
2019-05-14T13:08:00.495Z,19.65
2019-05-14T13:09:09.213Z,19.20
2019-05-14T13:10:13.798Z,19.21
2019-05-14T13:11:19.980Z,20.08
2019-05-14T13:12:25.063Z,19.75
2019-05-14T13:13:30.124Z,20.56
2019-05-14T13:14:35.236Z,20.34
2019-05-14T13:15:40.964Z,20.51
2019-05-14T13:16:48.470Z,21.01
2019-05-14T13:17:53.838Z,20.39
2019-05-14T13:18:59.782Z,19.74
2019-05-14T13:20:05.431Z,19.65
2019-05-14T13:21:10.733Z,20.29
2019-05-14T13:22:19.021Z,20.22
2019-05-14T13:23:22.795Z,20.43
2019-05-14T13:24:28.751Z,19.43
2019-05-14T13:25:33.693Z,19.26
2019-05-14T13:26:39.194Z,20.18
2019-05-14T13:27:44.552Z,19.52
2019-05-14T13:28:50.901Z,19.24
2019-05-14T13:29:56.363Z,19.24
2019-05-14T13:31:02.371Z,19.95
2019-05-14T13:32:11.950Z,20.90
2019-05-14T13:33:15.197Z,20.61
2019-05-14T13:34:20.363Z,20.14
2019-05-14T13:35:25.509Z,19.61
2019-05-14T13:36:30.698Z,19.32
2019-05-14T13:37:36.066Z,19.50
2019-05-14T13:38:41.288Z,20.15
2019-05-14T13:39:52.398Z,21.11
2019-05-14T13:40:53.888Z,20.20
2019-05-14T13:42:00.195Z,20.69
2019-05-14T13:43:05.256Z,20.18
2019-05-14T13:44:23.706Z,20.44
2019-05-14T13:45:19.262Z,20.32
2019-05-14T13:46:24.986Z,19.90
2019-05-14T13:47:30.010Z,20.37
2019-05-14T13:48:42.083Z,20.81
2019-05-14T13:49:43.565Z,21.22
2019-05-14T13:50:49.638Z,20.76
2019-05-14T13:51:54.453Z,20.32
2019-05-14T13:53:06.867Z,20.09
2019-05-14T13:54:08.481Z,19.81
2019-05-14T13:55:13.813Z,19.89
2019-05-14T13:56:19.335Z,19.66
2019-05-14T13:57:25.358Z,19.81
2019-05-14T13:58:30.863Z,19.89
2019-05-14T13:59:44.024Z,20.41
2019-05-14T14:00:43.870Z,20.24
2019-05-14T14:01:48.950Z,20.52
2019-05-14T14:02:55.071Z,20.19
2019-05-14T14:04:09.548Z,20.17
2019-05-14T14:05:08.710Z,20.06
2019-05-14T14:06:13.806Z,19.76
2019-05-14T14:07:19.220Z,19.65
2019-05-14T14:08:24.540Z,20.06
2019-05-14T14:09:31.546Z,20.60
2019-05-14T14:10:37.974Z,19.80
2019-05-14T14:11:43.415Z,20.04
2019-05-14T14:12:49.833Z,19.82
2019-05-14T14:13:54.812Z,19.53
2019-05-14T14:15:00.399Z,19.89
2019-05-14T14:16:05.907Z,20.00